Time;durP1;ratioP1;P1;durP2;ratioP2;P2;SDS_P1;SDS_P2;PMS_P1;PMS_P2;Temp;Humidity;BMP_temperature;BMP_pressure;BME280_temperature;BME280_humidity;BME280_pressure;Samples;Min_cycle;Max_cycle;Signal;HPM_P1;HPM_P2
2023/10/22 00:01:31;;;;;;;1.98;0.93;;;15.00;99.90;;;;;;4058545;28;20042;-69
2023/10/22 00:03:51;;;;;;;3.85;0.98;;;15.00;99.90;;;;;;4093247;28;20501;-67
2023/10/22 00:06:10;;;;;;;2.10;0.70;;;14.90;99.90;;;;;;4114892;28;20091;-67
2023/10/22 00:08:29;;;;;;;1.88;0.75;;;15.00;99.90;;;;;;4082850;28;20088;-67
2023/10/22 00:10:49;;;;;;;2.10;0.50;;;14.90;99.90;;;;;;4100371;28;20461;-67
2023/10/22 00:13:08;;;;;;;3.00;0.98;;;15.00;99.90;;;;;;4080014;28;20395;-75
2023/10/22 00:15:27;;;;;;;2.17;0.77;;;15.00;99.90;;;;;;4088436;28;20096;-76
2023/10/22 00:17:47;;;;;;;2.40;0.85;;;14.90;99.90;;;;;;4075121;28;20164;-75
2023/10/22 00:20:07;;;;;;;4.35;0.82;;;15.00;99.90;;;;;;4098187;28;21183;-74
2023/10/22 00:22:26;;;;;;;3.03;0.98;;;14.90;99.90;;;;;;4063668;28;20091;-76
2023/10/22 00:24:45;;;;;;;2.72;0.80;;;14.90;99.90;;;;;;4130915;28;20037;-75
2023/10/22 00:27:04;;;;;;;3.25;0.80;;;15.00;99.90;;;;;;4063846;28;20088;-75
2023/10/22 00:29:24;;;;;;;3.03;1.00;;;15.00;99.90;;;;;;4058217;28;20104;-75
2023/10/22 00:31:43;;;;;;;1.30;0.50;;;15.00;99.90;;;;;;4117606;28;20194;-75
2023/10/22 00:34:02;;;;;;;1.75;0.60;;;15.00;99.90;;;;;;4098890;28;20049;-75
2023/10/22 00:36:24;;;;;;;2.17;0.70;;;15.00;99.90;;;;;;4124321;28;20552;-76
2023/10/22 00:38:43;;;;;;;2.45;0.70;;;15.00;99.90;;;;;;4095257;28;20044;-75
2023/10/22 00:41:02;;;;;;;1.52;0.65;;;15.00;99.90;;;;;;4095280;28;20474;-75
2023/10/22 00:43:21;;;;;;;1.48;0.60;;;15.00;99.90;;;;;;4145305;28;20064;-75
2023/10/22 00:45:40;;;;;;;3.38;0.73;;;14.90;99.90;;;;;;4095012;28;20543;-76
2023/10/22 00:48:00;;;;;;;2.63;0.60;;;14.90;99.90;;;;;;4068171;28;20045;-76
2023/10/22 00:50:19;;;;;;;2.85;0.65;;;14.90;99.90;;;;;;4126410;28;20090;-75
2023/10/22 00:52:38;;;;;;;1.92;0.50;;;14.90;99.90;;;;;;4097682;28;20037;-77
2023/10/22 00:54:58;;;;;;;1.25;0.60;;;14.90;99.90;;;;;;4124814;28;20029;-76
2023/10/22 00:57:18;;;;;;;2.60;0.95;;;14.90;99.90;;;;;;4094677;28;20508;-75
2023/10/22 00:59:37;;;;;;;2.10;0.60;;;14.90;99.90;;;;;;4106256;28;20112;-78
2023/10/22 01:01:57;;;;;;;2.50;0.73;;;14.90;99.90;;;;;;4129052;28;20048;-78
2023/10/22 01:04:16;;;;;;;4.00;0.90;;;14.90;99.90;;;;;;4109854;28;20405;-79
2023/10/22 01:06:36;;;;;;;1.48;0.65;;;14.90;99.90;;;;;;4118300;28;20040;-77
2023/10/22 01:08:55;;;;;;;2.92;0.98;;;14.90;99.90;;;;;;4097310;28;20548;-79
2023/10/22 01:11:15;;;;;;;3.55;0.93;;;14.90;99.90;;;;;;4125216;28;20045;-79
2023/10/22 01:13:35;;;;;;;1.80;0.63;;;14.90;99.90;;;;;;4108568;28;20394;-79
2023/10/22 01:15:54;;;;;;;1.58;0.52;;;14.90;99.90;;;;;;4104025;28;20501;-79
2023/10/22 01:18:14;;;;;;;1.88;0.68;;;14.80;99.90;;;;;;4132064;28;20064;-80
2023/10/22 01:20:33;;;;;;;3.33;0.43;;;14.80;99.90;;;;;;4112834;28;20441;-80
2023/10/22 01:22:52;;;;;;;0.70;0.40;;;14.70;99.90;;;;;;4109094;28;20094;-80
2023/10/22 01:25:12;;;;;;;1.10;0.52;;;14.70;99.90;;;;;;4075895;28;20037;-80
2023/10/22 01:27:34;;;;;;;2.72;0.50;;;14.70;99.90;;;;;;4104533;28;20064;-79
2023/10/22 01:29:54;;;;;;;2.40;0.50;;;14.80;99.90;;;;;;4081445;28;20470;-80
2023/10/22 01:32:13;;;;;;;1.25;0.40;;;14.70;99.90;;;;;;4100090;28;20089;-79
2023/10/22 01:34:32;;;;;;;2.15;0.60;;;14.70;99.90;;;;;;4100141;28;20096;-77
2023/10/22 01:36:52;;;;;;;4.28;0.75;;;14.60;99.90;;;;;;4101622;28;20034;-76
2023/10/22 01:39:14;;;;;;;1.88;0.65;;;14.60;99.90;;;;;;4080402;28;20175;-76
2023/10/22 01:41:34;;;;;;;2.67;0.60;;;14.60;99.90;;;;;;4123059;28;20063;-77
2023/10/22 01:43:53;;;;;;;1.73;0.52;;;14.60;99.90;;;;;;4101982;28;20041;-76
2023/10/22 01:46:13;;;;;;;2.03;0.73;;;14.60;99.90;;;;;;4128693;28;20068;-76
2023/10/22 01:48:32;;;;;;;2.60;0.85;;;14.60;99.90;;;;;;4085198;28;20078;-76
2023/10/22 01:50:51;;;;;;;2.00;0.63;;;14.60;99.90;;;;;;4140046;28;20037;-76
2023/10/22 01:53:10;;;;;;;1.25;0.68;;;14.60;99.90;;;;;;4089028;28;20100;-76
2023/10/22 01:55:29;;;;;;;5.25;0.88;;;14.60;99.90;;;;;;4118446;28;20044;-76
2023/10/22 01:57:48;;;;;;;1.98;0.57;;;14.60;99.90;;;;;;4131076;28;20520;-75
2023/10/22 02:00:11;;;;;;;1.85;0.65;;;14.50;99.90;;;;;;4087735;28;20095;-76
2023/10/22 02:02:31;;;;;;;5.70;0.52;;;14.50;99.90;;;;;;4133508;28;20037;-75
2023/10/22 02:04:51;;;;;;;1.13;0.47;;;14.50;99.90;;;;;;4124206;28;20481;-76
2023/10/22 02:07:11;;;;;;;2.08;0.88;;;14.50;99.90;;;;;;4122120;28;20033;-76
2023/10/22 02:09:31;;;;;;;0.93;0.40;;;14.50;99.90;;;;;;4082195;28;20079;-76
2023/10/22 02:11:50;;;;;;;1.85;0.50;;;14.50;99.90;;;;;;4142140;28;20535;-76
2023/10/22 02:14:09;;;;;;;1.95;0.70;;;14.50;99.90;;;;;;4090885;28;20102;-77
2023/10/22 02:16:29;;;;;;;1.58;0.55;;;14.50;99.90;;;;;;4123348;28;20048;-77
2023/10/22 02:18:48;;;;;;;1.92;0.40;;;14.50;99.90;;;;;;4127277;28;20555;-77
2023/10/22 02:21:08;;;;;;;2.13;0.75;;;14.50;99.90;;;;;;4112795;28;20057;-76
2023/10/22 02:23:27;;;;;;;0.90;0.45;;;14.50;99.90;;;;;;4087869;28;20044;-76
2023/10/22 02:25:46;;;;;;;0.57;0.40;;;14.40;99.90;;;;;;4134819;28;20412;-76
2023/10/22 02:28:06;;;;;;;1.17;0.50;;;14.50;99.90;;;;;;4162289;28;20401;-77
2023/10/22 02:30:25;;;;;;;2.60;0.50;;;14.50;99.90;;;;;;4122745;28;20513;-76
2023/10/22 02:32:44;;;;;;;1.73;0.60;;;14.50;99.90;;;;;;4120350;28;20037;-76
2023/10/22 02:35:04;;;;;;;2.95;0.50;;;14.50;99.90;;;;;;4096512;28;20108;-76
2023/10/22 02:37:24;;;;;;;0.77;0.40;;;14.50;99.90;;;;;;4092209;28;20080;-76
2023/10/22 02:39:43;;;;;;;1.15;0.43;;;14.50;99.90;;;;;;4122200;28;20045;-76
2023/10/22 02:42:03;;;;;;;1.52;0.45;;;14.50;99.90;;;;;;4120604;28;20493;-75
2023/10/22 02:44:22;;;;;;;1.75;0.50;;;14.60;99.90;;;;;;4097902;28;20172;-76
2023/10/22 02:46:41;;;;;;;3.22;0.45;;;14.60;99.90;;;;;;4098715;28;20091;-76
2023/10/22 02:49:01;;;;;;;2.78;0.52;;;14.50;99.90;;;;;;4123385;28;20162;-76
2023/10/22 02:51:22;;;;;;;0.75;0.30;;;14.60;99.90;;;;;;4079319;28;20117;-76
2023/10/22 02:53:43;;;;;;;0.95;0.30;;;14.60;99.90;;;;;;4125425;28;20080;-67
2023/10/22 02:56:03;;;;;;;0.68;0.40;;;14.50;99.90;;;;;;4070188;28;20073;-67
2023/10/22 02:58:23;;;;;;;1.17;0.50;;;14.60;99.90;;;;;;4123390;28;20398;-68
2023/10/22 03:00:42;;;;;;;3.22;0.60;;;14.60;99.90;;;;;;4098402;28;20087;-67
2023/10/22 03:03:04;;;;;;;1.02;0.40;;;14.60;99.90;;;;;;4148368;28;20067;-67
2023/10/22 03:05:23;;;;;;;2.37;0.60;;;14.60;99.90;;;;;;4096640;28;20068;-68
2023/10/22 03:07:42;;;;;;;0.98;0.45;;;14.50;99.90;;;;;;4109180;28;20445;-67
2023/10/22 03:10:01;;;;;;;0.60;0.30;;;14.50;99.90;;;;;;4077197;28;20040;-67
2023/10/22 03:12:21;;;;;;;1.10;0.50;;;14.50;99.90;;;;;;4120859;28;20040;-67
2023/10/22 03:14:40;;;;;;;1.27;0.52;;;14.50;99.90;;;;;;4109952;28;20040;-67
2023/10/22 03:16:59;;;;;;;1.27;0.35;;;14.50;99.90;;;;;;4063117;28;20044;-67
2023/10/22 03:19:19;;;;;;;1.15;0.40;;;14.50;99.90;;;;;;4114190;28;20061;-67
2023/10/22 03:21:39;;;;;;;0.70;0.30;;;14.40;99.90;;;;;;4135243;28;20818;-68
2023/10/22 03:23:58;;;;;;;0.90;0.35;;;14.50;99.90;;;;;;4095377;28;20096;-67
2023/10/22 03:26:18;;;;;;;1.85;0.45;;;14.40;99.90;;;;;;4118261;28;20440;-67
2023/10/22 03:28:37;;;;;;;1.58;0.55;;;14.40;99.90;;;;;;4095531;28;20057;-67
2023/10/22 03:30:58;;;;;;;1.92;0.50;;;14.40;99.90;;;;;;4096489;28;20094;-67
2023/10/22 03:33:17;;;;;;;1.05;0.40;;;14.40;99.90;;;;;;4117600;28;20483;-67
2023/10/22 03:35:36;;;;;;;0.88;0.40;;;14.40;99.90;;;;;;4088348;28;20045;-67
2023/10/22 03:37:55;;;;;;;1.23;0.30;;;14.40;99.90;;;;;;4096423;28;20457;-67
2023/10/22 03:40:14;;;;;;;1.20;0.50;;;14.40;99.90;;;;;;4108792;28;20273;-67
2023/10/22 03:42:33;;;;;;;1.42;0.50;;;14.30;99.90;;;;;;4105781;28;20045;-67
2023/10/22 03:44:52;;;;;;;2.67;0.50;;;14.40;99.90;;;;;;4095669;28;20069;-67
2023/10/22 03:47:12;;;;;;;3.78;0.47;;;14.30;99.90;;;;;;4083232;28;20107;-67
2023/10/22 03:49:31;;;;;;;1.23;0.32;;;14.30;99.90;;;;;;4100589;28;20107;-67
2023/10/22 03:51:50;;;;;;;1.10;0.40;;;14.30;99.90;;;;;;4094006;28;20045;-67
2023/10/22 03:54:09;;;;;;;1.05;0.40;;;14.30;99.90;;;;;;4105910;28;20456;-67
2023/10/22 03:56:28;;;;;;;0.30;0.30;;;14.30;99.90;;;;;;4132075;28;20093;-67
2023/10/22 03:58:47;;;;;;;2.20;0.45;;;14.20;99.90;;;;;;4106283;28;20049;-67
2023/10/22 04:01:06;;;;;;;0.65;0.30;;;14.30;99.90;;;;;;4144227;28;20052;-67
2023/10/22 04:03:26;;;;;;;1.10;0.40;;;14.20;99.90;;;;;;4095820;28;20493;-69
2023/10/22 04:05:45;;;;;;;0.80;0.20;;;14.20;99.90;;;;;;4122390;28;20044;-69
2023/10/22 04:08:04;;;;;;;1.73;0.20;;;14.30;99.90;;;;;;4051952;28;20038;-69
2023/10/22 04:10:23;;;;;;;2.80;0.30;;;14.20;99.90;;;;;;4112718;28;20772;-69
2023/10/22 04:12:43;;;;;;;1.08;0.60;;;14.20;99.90;;;;;;4093080;28;20053;-69
2023/10/22 04:15:04;;;;;;;3.03;0.40;;;14.20;99.90;;;;;;4135523;28;20150;-70
2023/10/22 04:17:23;;;;;;;0.90;0.32;;;14.20;99.90;;;;;;4070764;28;20084;-69
2023/10/22 04:19:42;;;;;;;1.92;0.25;;;14.20;99.90;;;;;;4121901;28;20123;-69
2023/10/22 04:22:01;;;;;;;0.65;0.38;;;14.20;99.90;;;;;;4094091;28;20046;-69
2023/10/22 04:24:21;;;;;;;0.98;0.35;;;14.20;99.90;;;;;;4106180;28;20549;-69
2023/10/22 04:26:40;;;;;;;2.22;0.35;;;14.20;99.90;;;;;;4133485;28;20127;-69
2023/10/22 04:28:59;;;;;;;1.80;0.50;;;14.20;99.90;;;;;;4112654;28;20059;-69
2023/10/22 04:31:18;;;;;;;1.23;0.50;;;14.20;99.90;;;;;;4098881;28;20090;-69
2023/10/22 04:33:38;;;;;;;1.17;0.50;;;14.20;99.90;;;;;;4086031;28;20046;-69
2023/10/22 04:35:57;;;;;;;0.73;0.30;;;14.20;99.90;;;;;;4104195;28;20040;-69
2023/10/22 04:38:16;;;;;;;0.65;0.38;;;14.20;99.90;;;;;;4040496;28;20050;-69
2023/10/22 04:40:35;;;;;;;1.63;0.43;;;14.20;99.90;;;;;;4092395;28;20585;-69
2023/10/22 04:42:57;;;;;;;2.05;0.40;;;14.20;99.90;;;;;;4061448;28;20047;-69
2023/10/22 04:45:16;;;;;;;0.63;0.32;;;14.10;99.90;;;;;;4103059;28;20066;-70
2023/10/22 04:47:35;;;;;;;0.70;0.30;;;14.20;99.90;;;;;;4108381;28;20179;-69
2023/10/22 04:49:54;;;;;;;0.80;0.30;;;14.10;99.90;;;;;;4080818;28;21866;-69
2023/10/22 04:52:31;;;;;;;2.45;0.60;;;14.10;99.90;;;;;;4131479;28;20409;-69
2023/10/22 04:54:49;;;;;;;1.25;0.40;;;14.10;99.90;;;;;;4069441;28;20068;-69
2023/10/22 04:57:09;;;;;;;0.63;0.40;;;14.10;99.90;;;;;;4112721;28;20512;-69
2023/10/22 04:59:28;;;;;;;0.10;0.10;;;14.10;99.90;;;;;;4108274;28;20181;-69
2023/10/22 05:01:48;;;;;;;0.75;0.40;;;14.10;99.90;;;;;;4089824;28;20060;-69
2023/10/22 05:04:07;;;;;;;1.02;0.50;;;14.10;99.90;;;;;;4107159;28;20049;-69
2023/10/22 05:06:26;;;;;;;1.10;0.20;;;14.10;99.90;;;;;;4108218;28;20033;-69
2023/10/22 05:08:45;;;;;;;0.17;0.13;;;14.10;99.90;;;;;;4108632;28;20550;-69
2023/10/22 05:11:05;;;;;;;1.00;0.50;;;14.10;99.90;;;;;;4119743;28;20045;-69
2023/10/22 05:13:25;;;;;;;2.05;0.47;;;14.00;99.90;;;;;;4118036;28;20134;-65
2023/10/22 05:15:54;;;;;;;0.90;0.50;;;14.10;99.90;;;;;;4094791;28;20037;-65
2023/10/22 05:18:14;;;;;;;0.57;0.32;;;14.10;99.90;;;;;;4117773;28;20037;-65
2023/10/22 05:20:34;;;;;;;1.17;0.50;;;14.00;99.90;;;;;;4080143;28;20567;-65
2023/10/22 05:22:53;;;;;;;1.58;0.50;;;14.10;99.90;;;;;;4081913;28;20058;-65
2023/10/22 05:25:12;;;;;;;1.42;0.55;;;14.10;99.90;;;;;;4096036;28;20118;-65
2023/10/22 05:27:31;;;;;;;2.45;0.63;;;14.00;99.90;;;;;;4092194;28;20493;-67
2023/10/22 05:29:50;;;;;;;0.57;0.28;;;14.10;99.90;;;;;;4117614;28;20095;-65
2023/10/22 05:32:10;;;;;;;1.60;0.30;;;14.00;99.90;;;;;;4122501;28;20037;-65
2023/10/22 05:34:29;;;;;;;0.47;0.30;;;13.90;99.90;;;;;;4105953;28;20041;-65
2023/10/22 05:36:48;;;;;;;2.38;0.50;;;14.00;99.90;;;;;;4123002;28;20141;-65
2023/10/22 05:39:07;;;;;;;0.40;0.13;;;14.00;99.90;;;;;;4099907;28;20045;-65
2023/10/22 05:41:27;;;;;;;0.55;0.40;;;14.00;99.90;;;;;;4141292;28;20044;-65
2023/10/22 05:43:47;;;;;;;0.80;0.50;;;14.00;99.90;;;;;;4138790;28;20418;-65
2023/10/22 05:46:06;;;;;;;1.60;0.40;;;14.00;99.90;;;;;;4073702;28;20044;-65
2023/10/22 05:48:25;;;;;;;1.17;0.45;;;14.00;99.90;;;;;;4125012;28;20539;-65
2023/10/22 05:50:44;;;;;;;1.65;0.35;;;14.00;99.90;;;;;;4133929;28;20086;-65
2023/10/22 05:53:03;;;;;;;0.28;0.17;;;14.10;99.90;;;;;;4127043;28;20079;-65
2023/10/22 05:55:23;;;;;;;0.52;0.40;;;14.00;99.90;;;;;;4125267;28;20543;-65
2023/10/22 05:57:46;;;;;;;1.42;0.60;;;14.00;99.90;;;;;;4127845;28;20041;-65
2023/10/22 06:00:07;;;;;;;0.55;0.25;;;14.00;99.90;;;;;;4089590;28;20045;-66
2023/10/22 06:02:26;;;;;;;0.55;0.30;;;14.00;99.90;;;;;;4111705;28;20142;-65
2023/10/22 06:04:45;;;;;;;0.63;0.43;;;14.00;99.90;;;;;;4073880;28;20052;-65
2023/10/22 06:07:05;;;;;;;3.97;0.47;;;13.90;99.90;;;;;;4094131;28;20112;-65
2023/10/22 06:09:25;;;;;;;2.92;0.52;;;13.90;99.90;;;;;;4129208;28;20091;-65
2023/10/22 06:11:45;;;;;;;0.55;0.45;;;13.90;99.90;;;;;;4138992;28;20445;-65
2023/10/22 06:14:06;;;;;;;0.73;0.32;;;13.90;99.90;;;;;;4107794;28;20041;-65
2023/10/22 06:16:25;;;;;;;2.13;0.47;;;13.90;99.90;;;;;;4115374;28;20037;-65
2023/10/22 06:18:46;;;;;;;1.73;0.70;;;13.90;99.90;;;;;;4100915;28;20041;-65
2023/10/22 06:21:12;;;;;;;2.83;0.60;;;13.90;99.90;;;;;;4097140;28;20073;-66
2023/10/22 06:23:31;;;;;;;1.75;0.68;;;13.90;99.90;;;;;;4125616;28;20101;-86
2023/10/22 06:25:50;;;;;;;2.17;0.40;;;13.90;99.90;;;;;;4074279;28;20153;-85
2023/10/22 06:28:09;;;;;;;1.02;0.55;;;13.90;99.90;;;;;;4100850;28;20041;-83
2023/10/22 06:30:28;;;;;;;2.30;0.65;;;13.90;99.90;;;;;;4080852;28;20049;-84
2023/10/22 06:32:52;;;;;;;1.15;0.68;;;13.90;99.90;;;;;;4109555;28;20037;-85
2023/10/22 06:35:11;;;;;;;;;;;13.90;99.90;;;;;;4074621;28;20433;-86
2023/10/22 06:37:31;;;;;;;0.82;0.35;;;13.80;99.90;;;;;;4090484;28;19920;-85
2023/10/22 06:39:51;;;;;;;0.98;0.55;;;13.80;99.90;;;;;;4109004;28;20049;-86
2023/10/22 06:42:10;;;;;;;1.30;0.60;;;13.80;99.90;;;;;;4088603;28;20101;-86
2023/10/22 06:44:29;;;;;;;1.58;0.63;;;13.80;99.90;;;;;;4112244;28;20081;-86
2023/10/22 06:46:48;;;;;;;1.25;0.40;;;13.80;99.90;;;;;;4072607;28;20041;-87
2023/10/22 06:49:08;;;;;;;0.80;0.52;;;13.80;99.90;;;;;;4143374;28;20025;-86
2023/10/22 06:51:27;;;;;;;0.80;0.50;;;13.80;99.90;;;;;;4059368;28;20076;-86
2023/10/22 06:53:47;;;;;;;1.30;0.73;;;13.80;99.90;;;;;;4091968;28;20191;-86
2023/10/22 06:56:06;;;;;;;1.67;0.70;;;13.80;99.90;;;;;;4104221;28;20041;-85
2023/10/22 06:58:25;;;;;;;1.77;0.77;;;13.80;99.90;;;;;;4070536;28;20037;-75
2023/10/22 07:00:44;;;;;;;1.67;0.80;;;13.90;99.90;;;;;;4064913;28;20057;-76
2023/10/22 07:03:03;;;;;;;1.33;0.50;;;13.90;99.90;;;;;;4083403;28;20045;-77
2023/10/22 07:05:23;;;;;;;1.88;0.88;;;13.90;99.90;;;;;;4068299;28;20080;-75
2023/10/22 07:07:24;;;;;;;1.33;0.80;;;13.90;99.90;;;;;;4122230;28;20046;-73
2023/10/22 07:09:24;;;;;;;1.95;0.70;;;13.90;99.90;;;;;;4123916;28;20047;-76
2023/10/22 07:11:25;;;;;;;1.38;0.65;;;13.90;99.90;;;;;;4122285;28;20471;-75
2023/10/22 07:13:26;;;;;;;1.90;0.90;;;13.90;99.90;;;;;;4121960;28;20856;-78
2023/10/22 07:15:26;;;;;;;2.72;0.90;;;13.90;99.90;;;;;;4121696;28;20049;-77
2023/10/22 07:17:27;;;;;;;0.70;0.57;;;13.90;99.90;;;;;;4103841;28;20481;-77
2023/10/22 07:19:28;;;;;;;1.73;0.80;;;13.90;99.90;;;;;;4122699;28;20169;-78
2023/10/22 07:21:29;;;;;;;1.13;0.43;;;13.80;99.90;;;;;;4102955;28;20074;-77
2023/10/22 07:23:31;;;;;;;0.75;0.50;;;13.80;99.90;;;;;;4122210;28;20125;-77
2023/10/22 07:25:32;;;;;;;0.88;0.47;;;13.90;99.90;;;;;;4103847;28;20043;-77
2023/10/22 07:27:32;;;;;;;1.80;0.40;;;13.90;99.90;;;;;;4120164;28;20061;-78
2023/10/22 07:29:33;;;;;;;1.02;0.80;;;13.90;99.90;;;;;;4124707;28;20046;-77
2023/10/22 07:31:34;;;;;;;1.25;0.70;;;13.90;99.90;;;;;;4120233;28;20411;-77
2023/10/22 07:33:34;;;;;;;1.45;0.50;;;13.90;99.90;;;;;;4125499;28;20026;-67
2023/10/22 07:35:35;;;;;;;1.80;0.70;;;13.90;99.90;;;;;;4124116;28;20482;-67
2023/10/22 07:37:37;;;;;;;0.75;0.55;;;13.90;99.90;;;;;;4124846;28;20080;-67
2023/10/22 07:39:37;;;;;;;1.20;0.40;;;13.90;99.90;;;;;;4124457;28;20125;-67
2023/10/22 07:41:38;;;;;;;1.42;0.50;;;13.90;99.90;;;;;;4125867;28;20372;-67
2023/10/22 07:43:39;;;;;;;2.72;0.57;;;13.90;99.90;;;;;;4123105;28;20061;-67
2023/10/22 07:45:39;;;;;;;1.63;0.50;;;13.90;99.90;;;;;;4120940;28;20663;-67
2023/10/22 07:47:40;;;;;;;0.80;0.52;;;13.90;99.90;;;;;;4123576;28;20093;-67
2023/10/22 07:49:40;;;;;;;2.10;0.52;;;13.90;99.90;;;;;;4123409;28;20039;-67
2023/10/22 07:51:42;;;;;;;0.40;0.38;;;13.90;99.90;;;;;;4122473;28;20410;-67
2023/10/22 07:53:44;;;;;;;1.90;0.70;;;13.90;99.90;;;;;;4124046;28;20471;-67
2023/10/22 07:55:45;;;;;;;1.47;0.63;;;13.90;99.90;;;;;;4123317;28;20038;-67
2023/10/22 07:57:46;;;;;;;2.10;0.70;;;13.90;99.90;;;;;;4106189;28;20281;-67
2023/10/22 07:59:46;;;;;;;1.60;0.80;;;13.90;99.90;;;;;;4124376;28;20490;-67
2023/10/22 08:01:47;;;;;;;1.15;0.47;;;13.90;99.90;;;;;;4105569;28;20039;-67
2023/10/22 08:03:49;;;;;;;1.48;0.50;;;14.00;99.90;;;;;;4106675;28;20039;-67
2023/10/22 08:05:51;;;;;;;1.42;0.60;;;14.00;99.90;;;;;;4124730;28;20066;-67
2023/10/22 08:07:52;;;;;;;0.38;0.30;;;14.10;99.90;;;;;;4122772;28;20483;-67
2023/10/22 08:09:52;;;;;;;0.80;0.60;;;14.10;99.90;;;;;;4125513;28;20062;-67
2023/10/22 08:11:53;;;;;;;2.80;1.10;;;14.10;99.90;;;;;;4124225;28;20040;-67
2023/10/22 08:13:54;;;;;;;0.60;0.50;;;14.10;99.90;;;;;;4123964;28;20037;-68
2023/10/22 08:15:56;;;;;;;3.05;0.90;;;14.10;99.90;;;;;;4121874;28;20038;-67
2023/10/22 08:17:56;;;;;;;1.23;0.40;;;14.10;99.90;;;;;;4107096;28;20479;-67
2023/10/22 08:19:57;;;;;;;1.25;0.63;;;14.20;99.90;;;;;;4105515;28;20039;-66
2023/10/22 08:21:58;;;;;;;3.38;0.70;;;14.10;99.90;;;;;;4124934;28;20027;-67
2023/10/22 08:23:59;;;;;;;2.10;0.65;;;14.10;99.90;;;;;;4105752;28;20054;-66
2023/10/22 08:26:00;;;;;;;1.63;0.50;;;14.10;99.90;;;;;;4106138;28;20061;-66
2023/10/22 08:28:01;;;;;;;2.60;0.70;;;14.10;99.90;;;;;;4122774;28;20031;-66
2023/10/22 08:30:02;;;;;;;1.05;0.75;;;14.10;99.90;;;;;;4124520;28;20050;-66
2023/10/22 08:32:03;;;;;;;0.93;0.60;;;14.20;99.90;;;;;;4122948;28;20037;-66
2023/10/22 08:34:03;;;;;;;1.58;0.70;;;14.20;99.90;;;;;;4124774;28;20119;-66
2023/10/22 08:36:06;;;;;;;2.90;0.60;;;14.20;99.90;;;;;;4123319;28;20033;-66
2023/10/22 08:38:09;;;;;;;0.95;0.50;;;14.20;99.90;;;;;;4122033;28;20030;-66
2023/10/22 08:40:11;;;;;;;1.05;0.73;;;14.30;99.90;;;;;;4123690;28;20045;-67
2023/10/22 08:42:16;;;;;;;3.38;0.50;;;14.40;99.90;;;;;;4106217;28;20158;-66
2023/10/22 08:44:17;;;;;;;1.08;0.60;;;14.40;99.90;;;;;;4124154;28;20088;-68
2023/10/22 08:46:18;;;;;;;1.15;0.68;;;14.50;99.90;;;;;;4122384;28;20069;-68
2023/10/22 08:48:20;;;;;;;1.35;0.40;;;14.60;99.90;;;;;;4106506;28;20027;-67
2023/10/22 08:50:21;;;;;;;2.28;0.70;;;14.50;99.90;;;;;;4105851;28;20114;-68
2023/10/22 08:52:22;;;;;;;1.67;0.57;;;14.70;99.90;;;;;;4109300;28;20038;-68
2023/10/22 08:54:23;;;;;;;0.95;0.47;;;14.70;99.90;;;;;;4124667;28;20405;-68
2023/10/22 08:56:23;;;;;;;1.50;0.65;;;14.70;99.90;;;;;;4123000;28;20061;-68
2023/10/22 08:58:24;;;;;;;1.35;0.60;;;14.80;99.90;;;;;;4124379;28;20106;-68
2023/10/22 09:00:26;;;;;;;2.40;0.70;;;14.80;99.90;;;;;;4119510;28;20051;-68
2023/10/22 09:02:27;;;;;;;1.40;0.70;;;14.80;99.90;;;;;;4124143;28;20034;-68
2023/10/22 09:04:32;;;;;;;2.05;0.60;;;14.80;99.90;;;;;;4122780;28;20037;-69
2023/10/22 09:06:33;;;;;;;2.30;0.73;;;14.80;99.90;;;;;;4121049;28;20034;-68
2023/10/22 09:08:42;;;;;;;1.23;0.50;;;14.90;99.90;;;;;;4123041;28;20041;-68
2023/10/22 09:10:43;;;;;;;1.45;0.70;;;14.90;99.90;;;;;;4104937;28;20716;-68
2023/10/22 09:12:43;;;;;;;1.55;0.43;;;14.90;99.90;;;;;;4125325;28;20174;-68
2023/10/22 09:14:44;;;;;;;1.33;0.55;;;15.00;99.90;;;;;;4105831;28;20043;-68
2023/10/22 09:16:45;;;;;;;1.45;0.52;;;14.90;99.90;;;;;;4121137;28;20255;-68
2023/10/22 09:18:45;;;;;;;1.30;0.50;;;14.90;99.90;;;;;;4105714;28;20039;-68
2023/10/22 09:20:46;;;;;;;1.85;0.63;;;15.00;99.90;;;;;;4122108;28;20089;-68
2023/10/22 09:22:47;;;;;;;1.52;0.55;;;15.00;99.90;;;;;;4124633;28;20034;-68
2023/10/22 09:24:51;;;;;;;1.08;0.28;;;15.10;99.90;;;;;;4121933;28;20118;-68
2023/10/22 09:26:53;;;;;;;2.17;0.73;;;15.00;99.90;;;;;;4122838;28;20039;-68
2023/10/22 09:29:05;;;;;;;2.25;0.30;;;15.00;99.90;;;;;;4126353;28;20061;-68
2023/10/22 09:31:06;;;;;;;1.35;0.50;;;15.00;99.90;;;;;;4122952;28;20425;-68
2023/10/22 09:33:09;;;;;;;0.60;0.43;;;15.10;99.90;;;;;;4123769;28;20038;-68
2023/10/22 09:35:13;;;;;;;0.40;0.30;;;15.10;99.90;;;;;;4105638;28;20122;-68
2023/10/22 09:37:14;;;;;;;1.27;0.43;;;15.10;99.90;;;;;;4125096;28;20042;-68
2023/10/22 09:39:35;;;;;;;1.58;0.60;;;15.10;99.90;;;;;;4126499;28;20509;-68
2023/10/22 09:41:36;;;;;;;2.05;0.70;;;15.10;99.90;;;;;;4124787;28;20037;-68
2023/10/22 09:43:37;;;;;;;1.67;0.47;;;15.10;99.90;;;;;;4129440;28;20553;-68
2023/10/22 09:45:38;;;;;;;1.40;0.60;;;15.20;99.90;;;;;;4124392;28;20054;-68
2023/10/22 09:47:40;;;;;;;1.55;0.55;;;15.20;99.90;;;;;;4127031;28;20110;-68
2023/10/22 09:49:44;;;;;;;1.08;0.60;;;15.20;99.90;;;;;;4127237;28;20126;-68
2023/10/22 09:51:46;;;;;;;1.60;0.60;;;15.20;99.90;;;;;;4125627;28;20057;-68
2023/10/22 09:53:53;;;;;;;1.50;0.63;;;15.30;99.90;;;;;;4127213;28;20041;-69
2023/10/22 09:55:56;;;;;;;1.23;0.75;;;15.30;99.90;;;;;;4125338;28;20042;-69
2023/10/22 09:57:56;;;;;;;0.93;0.50;;;15.30;99.90;;;;;;4126896;28;20049;-69
2023/10/22 10:00:01;;;;;;;1.80;0.40;;;15.30;99.90;;;;;;4127071;28;20486;-70
2023/10/22 10:02:04;;;;;;;1.55;0.45;;;15.20;99.90;;;;;;4108609;28;20468;-69
2023/10/22 10:04:05;;;;;;;0.63;0.57;;;15.30;99.90;;;;;;4111935;28;20026;-69
2023/10/22 10:06:07;;;;;;;1.67;0.43;;;15.30;99.90;;;;;;4129476;28;20070;-69
2023/10/22 10:08:08;;;;;;;0.88;0.40;;;15.40;99.90;;;;;;4126768;28;20038;-69
2023/10/22 10:10:10;;;;;;;0.80;0.60;;;15.40;99.90;;;;;;4126885;28;20117;-69
2023/10/22 10:12:12;;;;;;;1.02;0.50;;;15.40;99.90;;;;;;4112464;28;20030;-69
2023/10/22 10:14:33;;;;;;;1.17;0.50;;;15.40;99.90;;;;;;4126318;28;20046;-69
2023/10/22 10:16:33;;;;;;;1.20;0.65;;;15.50;99.90;;;;;;4106138;28;20553;-69
2023/10/22 10:19:00;;;;;;;2.20;0.63;;;15.50;99.90;;;;;;4128094;28;20156;-69
2023/10/22 10:21:39;;;;;;;0.50;0.40;;;15.60;99.90;;;;;;4121950;28;20034;-69
2023/10/22 10:24:16;;;;;;;0.93;0.50;;;15.60;99.90;;;;;;4125235;28;20443;-69
2023/10/22 10:26:30;;;;;;;0.38;0.38;;;15.70;99.90;;;;;;4123879;28;20303;-69
2023/10/22 10:28:41;;;;;;;1.00;0.60;;;15.70;99.90;;;;;;4113722;28;20057;-69
2023/10/22 10:30:41;;;;;;;1.75;0.40;;;15.80;99.90;;;;;;4143118;28;20037;-69
2023/10/22 10:32:43;;;;;;;1.23;0.55;;;15.80;99.90;;;;;;4145951;28;20048;-69
2023/10/22 10:34:47;;;;;;;1.20;0.67;;;15.80;99.90;;;;;;4159802;28;20088;-69
2023/10/22 10:36:49;;;;;;;0.65;0.40;;;15.80;99.90;;;;;;4144363;28;20403;-69
2023/10/22 10:38:50;;;;;;;1.13;0.80;;;15.80;99.90;;;;;;4142639;28;20064;-69
2023/10/22 10:40:55;;;;;;;2.42;0.70;;;15.80;99.90;;;;;;4136882;28;20038;-69
2023/10/22 10:42:56;;;;;;;1.70;0.40;;;15.80;99.90;;;;;;4147151;28;20026;-69
2023/10/22 10:44:57;;;;;;;1.55;0.45;;;15.80;99.90;;;;;;4148821;28;20030;-69
2023/10/22 10:47:22;;;;;;;0.82;0.70;;;15.90;99.90;;;;;;4148634;28;20406;-69
2023/10/22 10:49:57;;;;;;;0.40;0.30;;;15.90;99.90;;;;;;4144598;28;20034;-69
2023/10/22 10:51:59;;;;;;;1.50;0.73;;;15.90;99.90;;;;;;4146945;28;20120;-69
2023/10/22 10:54:14;;;;;;;0.40;0.30;;;15.90;99.90;;;;;;4147707;28;20144;-69
2023/10/22 10:56:15;;;;;;;1.15;0.60;;;15.90;99.90;;;;;;4134653;28;20022;-69
2023/10/22 10:58:15;;;;;;;0.90;0.50;;;15.90;99.90;;;;;;4149296;28;20177;-69
2023/10/22 11:00:20;;;;;;;1.52;0.57;;;16.00;99.90;;;;;;4149950;28;20038;-69
2023/10/22 11:02:21;;;;;;;0.50;0.45;;;15.90;99.90;;;;;;4166472;28;20516;-69
2023/10/22 11:04:23;;;;;;;2.22;0.70;;;15.90;99.90;;;;;;4151497;28;20045;-69
2023/10/22 11:06:23;;;;;;;2.17;0.70;;;15.90;99.90;;;;;;4145702;28;20738;-69
2023/10/22 11:08:24;;;;;;;0.95;0.50;;;15.90;99.90;;;;;;4150625;28;20042;-69
2023/10/22 11:10:28;;;;;;;1.10;0.60;;;15.90;99.90;;;;;;4153179;28;20044;-69
2023/10/22 11:12:29;;;;;;;1.00;0.52;;;15.90;99.90;;;;;;4151930;28;20079;-69
2023/10/22 11:14:31;;;;;;;0.88;0.45;;;15.90;99.90;;;;;;4150289;28;20128;-69
2023/10/22 11:16:32;;;;;;;0.95;0.60;;;16.00;99.90;;;;;;4143131;28;20038;-69
2023/10/22 11:18:50;;;;;;;0.68;0.40;;;16.00;99.90;;;;;;4145184;28;20022;-69
2023/10/22 11:20:57;;;;;;;0.50;0.45;;;16.00;99.90;;;;;;4141088;28;20461;-69
2023/10/22 11:22:58;;;;;;;0.85;0.47;;;16.10;99.90;;;;;;4144745;28;20034;-68
2023/10/22 11:25:06;;;;;;;1.02;0.35;;;16.10;99.90;;;;;;4143049;28;20044;-70
2023/10/22 11:27:08;;;;;;;2.78;0.50;;;16.10;99.90;;;;;;4147479;28;20034;-69
2023/10/22 11:29:09;;;;;;;0.82;0.43;;;16.10;99.90;;;;;;4143714;28;20464;-69
2023/10/22 11:31:23;;;;;;;1.75;0.85;;;16.10;99.90;;;;;;4140154;28;20046;-69
2023/10/22 11:33:29;;;;;;;0.85;0.40;;;16.20;99.90;;;;;;4144114;28;20049;-69